sensor_id;sensor_type;location;lat;lon;timestamp;temperature;humidity
48946;DHT22;34999;50.940;3.998;2022-09-28T00:01:23;9.10;99.90
48946;DHT22;34999;50.940;3.998;2022-09-28T00:03:53;9.10;99.90
48946;DHT22;34999;50.940;3.998;2022-09-28T00:06:25;9.10;99.90
48946;DHT22;34999;50.940;3.998;2022-09-28T00:08:55;9.10;99.90
48946;DHT22;34999;50.940;3.998;2022-09-28T00:11:25;9.10;99.90
48946;DHT22;34999;50.940;3.998;2022-09-28T00:13:57;9.10;99.90
48946;DHT22;34999;50.940;3.998;2022-09-28T00:16:29;9.10;99.90
48946;DHT22;34999;50.940;3.998;2022-09-28T00:18:58;9.10;99.90
48946;DHT22;34999;50.940;3.998;2022-09-28T00:21:29;9.20;99.90
48946;DHT22;34999;50.940;3.998;2022-09-28T00:23:59;9.20;99.90
48946;DHT22;34999;50.940;3.998;2022-09-28T00:26:48;9.20;99.90
48946;DHT22;34999;50.940;3.998;2022-09-28T00:29:20;9.10;99.90
48946;DHT22;34999;50.940;3.998;2022-09-28T00:31:51;9.20;99.90
48946;DHT22;34999;50.940;3.998;2022-09-28T00:34:21;9.20;99.90
48946;DHT22;34999;50.940;3.998;2022-09-28T00:36:50;9.20;99.90
48946;DHT22;34999;50.940;3.998;2022-09-28T00:39:18;9.20;99.90
48946;DHT22;34999;50.940;3.998;2022-09-28T00:41:48;9.20;99.90
48946;DHT22;34999;50.940;3.998;2022-09-28T00:44:37;9.20;99.90
48946;DHT22;34999;50.940;3.998;2022-09-28T00:50:08;9.30;99.90
48946;DHT22;34999;50.940;3.998;2022-09-28T00:52:39;9.30;99.90
48946;DHT22;34999;50.940;3.998;2022-09-28T00:55:15;9.30;99.90
48946;DHT22;34999;50.940;3.998;2022-09-28T00:57:48;9.30;99.90
48946;DHT22;34999;50.940;3.998;2022-09-28T01:00:18;9.30;99.90
48946;DHT22;34999;50.940;3.998;2022-09-28T01:02:49;9.30;99.90
48946;DHT22;34999;50.940;3.998;2022-09-28T01:05:18;9.30;99.90
48946;DHT22;34999;50.940;3.998;2022-09-28T01:07:48;9.30;99.90
48946;DHT22;34999;50.940;3.998;2022-09-28T01:10:16;9.30;99.90
48946;DHT22;34999;50.940;3.998;2022-09-28T01:12:46;9.30;99.90
48946;DHT22;34999;50.940;3.998;2022-09-28T01:15:14;9.40;99.90
48946;DHT22;34999;50.940;3.998;2022-09-28T01:17:53;9.40;99.90
48946;DHT22;34999;50.940;3.998;2022-09-28T01:20:56;9.30;99.90
48946;DHT22;34999;50.940;3.998;2022-09-28T01:29:36;9.20;99.90
48946;DHT22;34999;50.940;3.998;2022-09-28T01:32:13;9.20;99.90
48946;DHT22;34999;50.940;3.998;2022-09-28T01:34:50;9.20;99.90
48946;DHT22;34999;50.940;3.998;2022-09-28T01:37:34;9.20;99.90
48946;DHT22;34999;50.940;3.998;2022-09-28T01:40:04;9.10;99.90
48946;DHT22;34999;50.940;3.998;2022-09-28T01:42:38;9.10;99.90
48946;DHT22;34999;50.940;3.998;2022-09-28T01:45:10;9.10;99.90
48946;DHT22;34999;50.940;3.998;2022-09-28T01:47:42;9.10;99.90
48946;DHT22;34999;50.940;3.998;2022-09-28T01:50:14;9.10;99.90
48946;DHT22;34999;50.940;3.998;2022-09-28T01:52:48;9.10;99.90
48946;DHT22;34999;50.940;3.998;2022-09-28T01:55:24;9.00;99.90
48946;DHT22;34999;50.940;3.998;2022-09-28T01:58:00;8.90;99.90
48946;DHT22;34999;50.940;3.998;2022-09-28T02:00:32;8.90;99.90
48946;DHT22;34999;50.940;3.998;2022-09-28T02:03:05;8.90;99.90
48946;DHT22;34999;50.940;3.998;2022-09-28T02:05:37;8.90;99.90
48946;DHT22;34999;50.940;3.998;2022-09-28T02:08:09;8.80;99.90
48946;DHT22;34999;50.940;3.998;2022-09-28T02:10:41;8.80;99.90
48946;DHT22;34999;50.940;3.998;2022-09-28T02:13:15;8.70;99.90
48946;DHT22;34999;50.940;3.998;2022-09-28T02:15:49;8.70;99.90
48946;DHT22;34999;50.940;3.998;2022-09-28T02:18:19;8.60;99.90
48946;DHT22;34999;50.940;3.998;2022-09-28T02:20:51;8.60;99.90
48946;DHT22;34999;50.940;3.998;2022-09-28T02:23:22;8.60;99.90
48946;DHT22;34999;50.940;3.998;2022-09-28T02:25:54;8.50;99.90
48946;DHT22;34999;50.940;3.998;2022-09-28T02:28:27;8.50;99.90
48946;DHT22;34999;50.940;3.998;2022-09-28T02:30:57;8.50;99.90
48946;DHT22;34999;50.940;3.998;2022-09-28T02:33:29;8.40;99.90
48946;DHT22;34999;50.940;3.998;2022-09-28T02:35:59;8.30;99.90
48946;DHT22;34999;50.940;3.998;2022-09-28T02:38:29;8.20;99.90
48946;DHT22;34999;50.940;3.998;2022-09-28T02:41:03;8.20;99.90
48946;DHT22;34999;50.940;3.998;2022-09-28T02:43:40;8.10;99.90
48946;DHT22;34999;50.940;3.998;2022-09-28T02:46:17;8.10;99.90
48946;DHT22;34999;50.940;3.998;2022-09-28T02:48:58;8.00;99.90
48946;DHT22;34999;50.940;3.998;2022-09-28T02:52:07;8.00;99.90
48946;DHT22;34999;50.940;3.998;2022-09-28T02:54:55;8.00;99.90
48946;DHT22;34999;50.940;3.998;2022-09-28T02:57:33;8.00;99.90
48946;DHT22;34999;50.940;3.998;2022-09-28T03:00:07;8.00;99.90
48946;DHT22;34999;50.940;3.998;2022-09-28T03:02:44;8.10;99.90
48946;DHT22;34999;50.940;3.998;2022-09-28T03:05:17;8.10;99.90
48946;DHT22;34999;50.940;3.998;2022-09-28T03:07:54;8.10;99.90
48946;DHT22;34999;50.940;3.998;2022-09-28T03:10:29;8.10;99.90
48946;DHT22;34999;50.940;3.998;2022-09-28T03:13:02;8.20;99.90
48946;DHT22;34999;50.940;3.998;2022-09-28T03:15:34;8.20;99.90
48946;DHT22;34999;50.940;3.998;2022-09-28T03:18:05;8.20;99.90
48946;DHT22;34999;50.940;3.998;2022-09-28T03:20:33;8.20;99.90
48946;DHT22;34999;50.940;3.998;2022-09-28T03:23:02;8.20;99.90
48946;DHT22;34999;50.940;3.998;2022-09-28T03:25:50;8.10;99.90
48946;DHT22;34999;50.940;3.998;2022-09-28T03:28:18;8.10;99.90
48946;DHT22;34999;50.940;3.998;2022-09-28T03:30:49;8.10;99.90
48946;DHT22;34999;50.940;3.998;2022-09-28T03:33:17;8.10;99.90
48946;DHT22;34999;50.940;3.998;2022-09-28T03:35:46;8.00;99.90
48946;DHT22;34999;50.940;3.998;2022-09-28T03:38:14;8.00;99.90
48946;DHT22;34999;50.940;3.998;2022-09-28T03:40:50;8.00;99.90
48946;DHT22;34999;50.940;3.998;2022-09-28T03:43:19;7.90;99.90
48946;DHT22;34999;50.940;3.998;2022-09-28T03:45:52;7.80;99.90
48946;DHT22;34999;50.940;3.998;2022-09-28T03:48:22;7.80;99.90
48946;DHT22;34999;50.940;3.998;2022-09-28T03:50:59;7.70;99.90
48946;DHT22;34999;50.940;3.998;2022-09-28T03:53:28;7.70;99.90
48946;DHT22;34999;50.940;3.998;2022-09-28T03:56:01;7.70;99.90
48946;DHT22;34999;50.940;3.998;2022-09-28T03:58:30;7.60;99.90
48946;DHT22;34999;50.940;3.998;2022-09-28T04:01:05;7.60;99.90
48946;DHT22;34999;50.940;3.998;2022-09-28T04:03:37;7.60;99.90
48946;DHT22;34999;50.940;3.998;2022-09-28T04:06:06;7.60;99.90
48946;DHT22;34999;50.940;3.998;2022-09-28T04:08:35;7.60;99.90
48946;DHT22;34999;50.940;3.998;2022-09-28T04:11:03;7.60;99.90
48946;DHT22;34999;50.940;3.998;2022-09-28T04:13:31;7.50;99.90
48946;DHT22;34999;50.940;3.998;2022-09-28T04:16:04;7.50;99.90
48946;DHT22;34999;50.940;3.998;2022-09-28T04:18:32;7.60;99.90
48946;DHT22;34999;50.940;3.998;2022-09-28T04:21:02;7.50;99.90
48946;DHT22;34999;50.940;3.998;2022-09-28T04:23:33;7.50;99.90
48946;DHT22;34999;50.940;3.998;2022-09-28T04:26:02;7.50;99.90
48946;DHT22;34999;50.940;3.998;2022-09-28T04:28:31;7.50;99.90
48946;DHT22;34999;50.940;3.998;2022-09-28T04:31:20;7.40;99.90
48946;DHT22;34999;50.940;3.998;2022-09-28T04:33:49;7.50;99.90
48946;DHT22;34999;50.940;3.998;2022-09-28T04:36:17;7.40;99.90
48946;DHT22;34999;50.940;3.998;2022-09-28T04:38:46;7.40;99.90
48946;DHT22;34999;50.940;3.998;2022-09-28T04:41:20;7.40;99.90
48946;DHT22;34999;50.940;3.998;2022-09-28T04:43:49;7.40;99.90
48946;DHT22;34999;50.940;3.998;2022-09-28T04:46:19;7.40;99.90
48946;DHT22;34999;50.940;3.998;2022-09-28T04:48:47;7.30;99.90
48946;DHT22;34999;50.940;3.998;2022-09-28T04:51:15;7.30;99.90
48946;DHT22;34999;50.940;3.998;2022-09-28T04:53:44;7.30;99.90
48946;DHT22;34999;50.940;3.998;2022-09-28T04:56:13;7.20;99.90
48946;DHT22;34999;50.940;3.998;2022-09-28T04:58:42;7.20;99.90
48946;DHT22;34999;50.940;3.998;2022-09-28T05:01:19;7.20;99.90
48946;DHT22;34999;50.940;3.998;2022-09-28T05:03:49;7.20;99.90
48946;DHT22;34999;50.940;3.998;2022-09-28T05:06:18;7.10;99.90
48946;DHT22;34999;50.940;3.998;2022-09-28T05:08:46;7.10;99.90
48946;DHT22;34999;50.940;3.998;2022-09-28T05:11:15;7.10;99.90
48946;DHT22;34999;50.940;3.998;2022-09-28T05:13:45;7.10;99.90
48946;DHT22;34999;50.940;3.998;2022-09-28T05:16:15;7.10;99.90
48946;DHT22;34999;50.940;3.998;2022-09-28T05:18:45;7.10;99.90
48946;DHT22;34999;50.940;3.998;2022-09-28T05:21:14;7.10;99.90
48946;DHT22;34999;50.940;3.998;2022-09-28T05:23:46;7.10;99.90
48946;DHT22;34999;50.940;3.998;2022-09-28T05:26:14;7.10;99.90
48946;DHT22;34999;50.940;3.998;2022-09-28T05:28:42;7.10;99.90
48946;DHT22;34999;50.940;3.998;2022-09-28T05:31:11;7.10;99.90
48946;DHT22;34999;50.940;3.998;2022-09-28T05:33:39;7.10;99.90
48946;DHT22;34999;50.940;3.998;2022-09-28T05:36:10;7.10;99.90
48946;DHT22;34999;50.940;3.998;2022-09-28T05:38:38;7.10;99.90
48946;DHT22;34999;50.940;3.998;2022-09-28T05:41:06;7.20;99.90
48946;DHT22;34999;50.940;3.998;2022-09-28T05:43:34;7.10;99.90
48946;DHT22;34999;50.940;3.998;2022-09-28T05:46:05;7.20;99.90
48946;DHT22;34999;50.940;3.998;2022-09-28T05:48:33;7.20;99.90
48946;DHT22;34999;50.940;3.998;2022-09-28T05:51:02;7.20;99.90
48946;DHT22;34999;50.940;3.998;2022-09-28T05:53:31;7.30;99.90
48946;DHT22;34999;50.940;3.998;2022-09-28T05:56:00;7.30;99.90
48946;DHT22;34999;50.940;3.998;2022-09-28T05:58:29;7.40;99.90
48946;DHT22;34999;50.940;3.998;2022-09-28T06:00:57;7.50;99.90
48946;DHT22;34999;50.940;3.998;2022-09-28T06:03:26;7.50;99.90
48946;DHT22;34999;50.940;3.998;2022-09-28T06:05:54;7.60;99.90
48946;DHT22;34999;50.940;3.998;2022-09-28T06:08:22;7.60;99.90
48946;DHT22;34999;50.940;3.998;2022-09-28T06:10:52;7.60;99.90
48946;DHT22;34999;50.940;3.998;2022-09-28T06:13:20;7.60;99.90
48946;DHT22;34999;50.940;3.998;2022-09-28T06:15:49;7.60;99.90
48946;DHT22;34999;50.940;3.998;2022-09-28T06:18:17;7.60;99.90
48946;DHT22;34999;50.940;3.998;2022-09-28T06:20:45;7.60;99.90
48946;DHT22;34999;50.940;3.998;2022-09-28T06:23:14;7.50;99.90
48946;DHT22;34999;50.940;3.998;2022-09-28T06:25:42;7.50;99.90
48946;DHT22;34999;50.940;3.998;2022-09-28T06:28:13;7.60;99.90
48946;DHT22;34999;50.940;3.998;2022-09-28T06:30:42;7.60;99.90
48946;DHT22;34999;50.940;3.998;2022-09-28T06:33:13;7.70;99.90
48946;DHT22;34999;50.940;3.998;2022-09-28T06:35:42;7.70;99.90
48946;DHT22;34999;50.940;3.998;2022-09-28T06:38:10;7.90;99.90
48946;DHT22;34999;50.940;3.998;2022-09-28T06:40:38;8.00;99.90
48946;DHT22;34999;50.940;3.998;2022-09-28T06:43:11;8.10;99.90
48946;DHT22;34999;50.940;3.998;2022-09-28T06:45:42;8.20;99.90
48946;DHT22;34999;50.940;3.998;2022-09-28T06:48:10;8.20;99.90
48946;DHT22;34999;50.940;3.998;2022-09-28T06:50:40;8.20;99.90
48946;DHT22;34999;50.940;3.998;2022-09-28T06:53:11;8.20;99.90
48946;DHT22;34999;50.940;3.998;2022-09-28T06:55:40;8.30;99.90
48946;DHT22;34999;50.940;3.998;2022-09-28T06:58:12;8.30;99.90
48946;DHT22;34999;50.940;3.998;2022-09-28T07:00:43;8.30;99.90
48946;DHT22;34999;50.940;3.998;2022-09-28T07:03:13;8.40;99.90
48946;DHT22;34999;50.940;3.998;2022-09-28T07:05:44;8.50;99.90
48946;DHT22;34999;50.940;3.998;2022-09-28T07:08:13;8.60;99.90
48946;DHT22;34999;50.940;3.998;2022-09-28T07:10:43;8.60;99.90
48946;DHT22;34999;50.940;3.998;2022-09-28T07:13:14;8.70;99.90
48946;DHT22;34999;50.940;3.998;2022-09-28T07:16:03;8.80;99.90
48946;DHT22;34999;50.940;3.998;2022-09-28T07:18:31;9.00;99.90
48946;DHT22;34999;50.940;3.998;2022-09-28T07:20:59;9.10;99.90
48946;DHT22;34999;50.940;3.998;2022-09-28T07:23:28;9.20;99.90
48946;DHT22;34999;50.940;3.998;2022-09-28T07:26:02;9.30;99.90
48946;DHT22;34999;50.940;3.998;2022-09-28T07:28:35;9.40;99.90
48946;DHT22;34999;50.940;3.998;2022-09-28T07:31:06;9.60;99.90
48946;DHT22;34999;50.940;3.998;2022-09-28T07:33:35;9.70;99.90
48946;DHT22;34999;50.940;3.998;2022-09-28T07:36:03;9.70;99.90
48946;DHT22;34999;50.940;3.998;2022-09-28T07:38:33;9.80;99.90
48946;DHT22;34999;50.940;3.998;2022-09-28T07:41:01;10.00;99.90
48946;DHT22;34999;50.940;3.998;2022-09-28T07:43:40;10.10;99.90
48946;DHT22;34999;50.940;3.998;2022-09-28T07:46:09;10.30;99.90
48946;DHT22;34999;50.940;3.998;2022-09-28T07:48:40;10.40;99.90
48946;DHT22;34999;50.940;3.998;2022-09-28T07:51:09;10.50;99.90
48946;DHT22;34999;50.940;3.998;2022-09-28T07:53:37;10.60;99.90
48946;DHT22;34999;50.940;3.998;2022-09-28T07:56:06;10.70;99.90
48946;DHT22;34999;50.940;3.998;2022-09-28T07:58:36;10.80;99.90
48946;DHT22;34999;50.940;3.998;2022-09-28T08:01:08;11.00;99.90
48946;DHT22;34999;50.940;3.998;2022-09-28T08:03:40;11.00;99.90
48946;DHT22;34999;50.940;3.998;2022-09-28T08:06:13;11.10;99.90
48946;DHT22;34999;50.940;3.998;2022-09-28T08:08:43;11.10;99.90
48946;DHT22;34999;50.940;3.998;2022-09-28T08:11:12;11.20;99.90
48946;DHT22;34999;50.940;3.998;2022-09-28T08:13:41;11.30;99.90
48946;DHT22;34999;50.940;3.998;2022-09-28T08:16:12;11.40;99.90
48946;DHT22;34999;50.940;3.998;2022-09-28T08:18:41;11.50;99.90
48946;DHT22;34999;50.940;3.998;2022-09-28T08:21:09;11.60;99.90
48946;DHT22;34999;50.940;3.998;2022-09-28T08:23:55;11.70;99.90
48946;DHT22;34999;50.940;3.998;2022-09-28T08:26:24;11.70;99.90
48946;DHT22;34999;50.940;3.998;2022-09-28T08:28:52;11.80;99.90
48946;DHT22;34999;50.940;3.998;2022-09-28T08:31:24;11.90;99.90
48946;DHT22;34999;50.940;3.998;2022-09-28T08:33:53;12.00;99.90
48946;DHT22;34999;50.940;3.998;2022-09-28T08:36:21;12.10;99.90
48946;DHT22;34999;50.940;3.998;2022-09-28T08:38:49;12.30;99.90
48946;DHT22;34999;50.940;3.998;2022-09-28T08:41:24;12.40;99.90
48946;DHT22;34999;50.940;3.998;2022-09-28T08:44:13;12.30;99.90
48946;DHT22;34999;50.940;3.998;2022-09-28T08:46:45;12.20;99.90
48946;DHT22;34999;50.940;3.998;2022-09-28T08:49:19;12.20;99.90
48946;DHT22;34999;50.940;3.998;2022-09-28T08:51:57;12.30;99.90
48946;DHT22;34999;50.940;3.998;2022-09-28T08:54:32;12.40;99.90
48946;DHT22;34999;50.940;3.998;2022-09-28T08:57:05;12.40;99.90
48946;DHT22;34999;50.940;3.998;2022-09-28T08:59:44;12.50;99.90
48946;DHT22;34999;50.940;3.998;2022-09-28T09:02:19;12.70;99.90
48946;DHT22;34999;50.940;3.998;2022-09-28T09:04:49;12.80;99.90
48946;DHT22;34999;50.940;3.998;2022-09-28T09:07:43;12.90;99.90
48946;DHT22;34999;50.940;3.998;2022-09-28T09:10:35;13.00;99.90
48946;DHT22;34999;50.940;3.998;2022-09-28T09:13:24;13.00;99.90
48946;DHT22;34999;50.940;3.998;2022-09-28T09:16:05;12.80;99.90
48946;DHT22;34999;50.940;3.998;2022-09-28T09:18:41;12.90;99.90
48946;DHT22;34999;50.940;3.998;2022-09-28T09:21:13;13.10;99.90
48946;DHT22;34999;50.940;3.998;2022-09-28T09:23:51;13.20;99.90
48946;DHT22;34999;50.940;3.998;2022-09-28T09:26:31;13.30;99.90
48946;DHT22;34999;50.940;3.998;2022-09-28T09:29:14;13.20;99.90
48946;DHT22;34999;50.940;3.998;2022-09-28T09:31:58;13.10;99.90
48946;DHT22;34999;50.940;3.998;2022-09-28T09:34:45;13.00;99.90
48946;DHT22;34999;50.940;3.998;2022-09-28T09:37:41;12.90;99.90
48946;DHT22;34999;50.940;3.998;2022-09-28T09:40:26;12.90;99.90
48946;DHT22;34999;50.940;3.998;2022-09-28T09:43:06;12.90;99.90
48946;DHT22;34999;50.940;3.998;2022-09-28T09:45:50;12.90;99.90
48946;DHT22;34999;50.940;3.998;2022-09-28T09:48:25;12.90;99.90
48946;DHT22;34999;50.940;3.998;2022-09-28T09:51:00;13.00;99.90
48946;DHT22;34999;50.940;3.998;2022-09-28T09:53:37;12.90;99.90
48946;DHT22;34999;50.940;3.998;2022-09-28T09:56:13;13.10;99.90
48946;DHT22;34999;50.940;3.998;2022-09-28T09:58:44;13.30;99.90
48946;DHT22;34999;50.940;3.998;2022-09-28T10:01:18;13.50;99.90
48946;DHT22;34999;50.940;3.998;2022-09-28T10:03:47;13.60;99.90
48946;DHT22;34999;50.940;3.998;2022-09-28T10:06:20;13.50;99.90
48946;DHT22;34999;50.940;3.998;2022-09-28T10:08:59;13.70;99.90
48946;DHT22;34999;50.940;3.998;2022-09-28T10:11:32;13.90;99.90
48946;DHT22;34999;50.940;3.998;2022-09-28T10:14:03;14.20;99.90
48946;DHT22;34999;50.940;3.998;2022-09-28T10:16:32;14.50;99.90
48946;DHT22;34999;50.940;3.998;2022-09-28T10:19:00;14.50;99.90
48946;DHT22;34999;50.940;3.998;2022-09-28T10:21:30;14.40;99.90
48946;DHT22;34999;50.940;3.998;2022-09-28T10:24:03;14.50;99.90
48946;DHT22;34999;50.940;3.998;2022-09-28T10:26:37;14.80;99.90
48946;DHT22;34999;50.940;3.998;2022-09-28T10:29:12;15.00;99.90
48946;DHT22;34999;50.940;3.998;2022-09-28T10:31:45;15.20;99.90
48946;DHT22;34999;50.940;3.998;2022-09-28T10:34:15;15.40;99.90
48946;DHT22;34999;50.940;3.998;2022-09-28T10:36:49;15.70;99.90
48946;DHT22;34999;50.940;3.998;2022-09-28T10:39:27;15.50;99.90
48946;DHT22;34999;50.940;3.998;2022-09-28T10:41:57;15.20;99.90
48946;DHT22;34999;50.940;3.998;2022-09-28T10:44:26;14.80;99.90
48946;DHT22;34999;50.940;3.998;2022-09-28T10:46:55;14.60;99.90
48946;DHT22;34999;50.940;3.998;2022-09-28T10:49:25;14.80;99.90
48946;DHT22;34999;50.940;3.998;2022-09-28T10:51:56;15.20;99.90
48946;DHT22;34999;50.940;3.998;2022-09-28T10:54:25;15.40;99.90
48946;DHT22;34999;50.940;3.998;2022-09-28T10:56:55;15.80;99.90
48946;DHT22;34999;50.940;3.998;2022-09-28T10:59:36;16.10;99.90
48946;DHT22;34999;50.940;3.998;2022-09-28T11:02:17;16.20;99.90
48946;DHT22;34999;50.940;3.998;2022-09-28T11:04:52;16.10;99.90
48946;DHT22;34999;50.940;3.998;2022-09-28T11:07:23;15.90;99.90
48946;DHT22;34999;50.940;3.998;2022-09-28T11:09:54;16.10;99.90
48946;DHT22;34999;50.940;3.998;2022-09-28T11:12:23;16.20;99.90
48946;DHT22;34999;50.940;3.998;2022-09-28T11:14:57;16.30;99.90
48946;DHT22;34999;50.940;3.998;2022-09-28T11:17:28;15.90;99.90
48946;DHT22;34999;50.940;3.998;2022-09-28T11:19:58;15.40;99.90
48946;DHT22;34999;50.940;3.998;2022-09-28T11:22:38;15.20;99.90
48946;DHT22;34999;50.940;3.998;2022-09-28T11:25:21;14.80;99.90
48946;DHT22;34999;50.940;3.998;2022-09-28T11:27:58;14.60;99.90
48946;DHT22;34999;50.940;3.998;2022-09-28T11:30:31;14.40;99.90
48946;DHT22;34999;50.940;3.998;2022-09-28T11:33:02;14.30;99.90
48946;DHT22;34999;50.940;3.998;2022-09-28T11:35:45;14.40;99.90
48946;DHT22;34999;50.940;3.998;2022-09-28T11:38:31;14.50;99.90
48946;DHT22;34999;50.940;3.998;2022-09-28T11:41:21;14.70;99.90
48946;DHT22;34999;50.940;3.998;2022-09-28T11:44:10;14.80;99.90
48946;DHT22;34999;50.940;3.998;2022-09-28T11:46:48;15.10;99.90
48946;DHT22;34999;50.940;3.998;2022-09-28T11:49:27;15.70;99.90
48946;DHT22;34999;50.940;3.998;2022-09-28T11:52:01;16.40;99.90
48946;DHT22;34999;50.940;3.998;2022-09-28T11:54:36;16.30;99.90
48946;DHT22;34999;50.940;3.998;2022-09-28T11:57:13;16.50;99.90
48946;DHT22;34999;50.940;3.998;2022-09-28T11:59:51;16.70;99.90
48946;DHT22;34999;50.940;3.998;2022-09-28T12:02:24;16.70;99.90
48946;DHT22;34999;50.940;3.998;2022-09-28T12:05:00;16.20;99.90
48946;DHT22;34999;50.940;3.998;2022-09-28T12:07:34;16.00;99.90
48946;DHT22;34999;50.940;3.998;2022-09-28T12:10:12;15.80;99.90
48946;DHT22;34999;50.940;3.998;2022-09-28T12:12:46;15.70;99.90
48946;DHT22;34999;50.940;3.998;2022-09-28T12:15:19;15.50;99.90
48946;DHT22;34999;50.940;3.998;2022-09-28T12:17:53;15.80;99.90
48946;DHT22;34999;50.940;3.998;2022-09-28T12:20:24;16.50;99.90
48946;DHT22;34999;50.940;3.998;2022-09-28T12:23:02;17.20;99.90
48946;DHT22;34999;50.940;3.998;2022-09-28T12:25:39;17.90;99.90
48946;DHT22;34999;50.940;3.998;2022-09-28T12:28:17;18.10;99.90
48946;DHT22;34999;50.940;3.998;2022-09-28T12:30:48;17.80;99.90
48946;DHT22;34999;50.940;3.998;2022-09-28T12:33:19;17.90;99.90
48946;DHT22;34999;50.940;3.998;2022-09-28T12:35:59;17.80;99.90
48946;DHT22;34999;50.940;3.998;2022-09-28T12:38:44;17.90;99.90
48946;DHT22;34999;50.940;3.998;2022-09-28T12:41:47;17.90;99.90
48946;DHT22;34999;50.940;3.998;2022-09-28T12:44:47;17.90;99.90
48946;DHT22;34999;50.940;3.998;2022-09-28T12:47:54;18.10;99.90
48946;DHT22;34999;50.940;3.998;2022-09-28T12:50:31;18.30;99.90
48946;DHT22;34999;50.940;3.998;2022-09-28T12:53:21;18.70;99.90
48946;DHT22;34999;50.940;3.998;2022-09-28T12:55:58;18.70;99.90
48946;DHT22;34999;50.940;3.998;2022-09-28T12:58:41;18.30;99.90
48946;DHT22;34999;50.940;3.998;2022-09-28T13:01:27;17.80;99.90
48946;DHT22;34999;50.940;3.998;2022-09-28T13:04:15;17.80;99.90
48946;DHT22;34999;50.940;3.998;2022-09-28T13:06:54;17.90;99.90
48946;DHT22;34999;50.940;3.998;2022-09-28T13:09:24;17.60;99.90
48946;DHT22;34999;50.940;3.998;2022-09-28T13:12:01;17.20;99.90
48946;DHT22;34999;50.940;3.998;2022-09-28T13:14:49;16.90;99.90
48946;DHT22;34999;50.940;3.998;2022-09-28T13:17:35;17.00;99.90
48946;DHT22;34999;50.940;3.998;2022-09-28T13:20:20;17.30;99.90
48946;DHT22;34999;50.940;3.998;2022-09-28T13:22:57;17.40;99.90
48946;DHT22;34999;50.940;3.998;2022-09-28T13:25:32;17.20;99.90
48946;DHT22;34999;50.940;3.998;2022-09-28T13:28:04;16.90;99.90
48946;DHT22;34999;50.940;3.998;2022-09-28T13:30:35;16.60;99.90
48946;DHT22;34999;50.940;3.998;2022-09-28T13:33:07;16.60;99.90
48946;DHT22;34999;50.940;3.998;2022-09-28T13:35:41;16.70;99.90
48946;DHT22;34999;50.940;3.998;2022-09-28T13:41:21;16.90;99.90
48946;DHT22;34999;50.940;3.998;2022-09-28T13:44:16;17.10;99.90
48946;DHT22;34999;50.940;3.998;2022-09-28T13:46:57;17.40;99.90
48946;DHT22;34999;50.940;3.998;2022-09-28T13:49:40;17.60;99.90
48946;DHT22;34999;50.940;3.998;2022-09-28T13:52:15;17.30;99.90
48946;DHT22;34999;50.940;3.998;2022-09-28T13:55:02;17.20;99.90
48946;DHT22;34999;50.940;3.998;2022-09-28T13:57:42;17.20;99.90
48946;DHT22;34999;50.940;3.998;2022-09-28T14:00:18;17.30;99.90
48946;DHT22;34999;50.940;3.998;2022-09-28T14:02:53;17.50;99.90
48946;DHT22;34999;50.940;3.998;2022-09-28T14:05:44;17.50;99.90
48946;DHT22;34999;50.940;3.998;2022-09-28T14:08:29;17.40;99.90
48946;DHT22;34999;50.940;3.998;2022-09-28T14:14:46;16.80;99.90
48946;DHT22;34999;50.940;3.998;2022-09-28T14:20:26;17.20;99.90
48946;DHT22;34999;50.940;3.998;2022-09-28T14:26:34;17.70;99.90
48946;DHT22;34999;50.940;3.998;2022-09-28T14:29:19;17.90;99.90
48946;DHT22;34999;50.940;3.998;2022-09-28T14:31:56;17.70;99.90
48946;DHT22;34999;50.940;3.998;2022-09-28T14:34:30;17.70;99.90
48946;DHT22;34999;50.940;3.998;2022-09-28T14:37:03;17.60;99.90
48946;DHT22;34999;50.940;3.998;2022-09-28T14:39:50;17.20;99.90
48946;DHT22;34999;50.940;3.998;2022-09-28T14:42:36;16.70;99.90
48946;DHT22;34999;50.940;3.998;2022-09-28T14:45:34;16.50;99.90
48946;DHT22;34999;50.940;3.998;2022-09-28T14:48:15;16.30;99.90
48946;DHT22;34999;50.940;3.998;2022-09-28T14:50:45;16.50;99.90
48946;DHT22;34999;50.940;3.998;2022-09-28T14:53:21;17.00;99.90
48946;DHT22;34999;50.940;3.998;2022-09-28T14:55:54;17.50;99.90
48946;DHT22;34999;50.940;3.998;2022-09-28T14:58:24;18.00;99.90
48946;DHT22;34999;50.940;3.998;2022-09-28T15:00:59;18.30;99.90
48946;DHT22;34999;50.940;3.998;2022-09-28T15:03:29;18.50;99.90
48946;DHT22;34999;50.940;3.998;2022-09-28T15:06:00;18.70;99.90
48946;DHT22;34999;50.940;3.998;2022-09-28T15:08:37;18.80;99.90
48946;DHT22;34999;50.940;3.998;2022-09-28T15:11:10;19.00;99.90
48946;DHT22;34999;50.940;3.998;2022-09-28T15:13:41;19.00;99.90
48946;DHT22;34999;50.940;3.998;2022-09-28T15:16:11;19.20;99.90
48946;DHT22;34999;50.940;3.998;2022-09-28T15:19:09;19.10;99.90
48946;DHT22;34999;50.940;3.998;2022-09-28T15:21:42;18.90;99.90
48946;DHT22;34999;50.940;3.998;2022-09-28T15:24:32;18.70;99.90
48946;DHT22;34999;50.940;3.998;2022-09-28T15:27:01;18.60;99.90
48946;DHT22;34999;50.940;3.998;2022-09-28T15:29:30;18.30;99.90
48946;DHT22;34999;50.940;3.998;2022-09-28T15:31:59;18.20;99.90
48946;DHT22;34999;50.940;3.998;2022-09-28T15:34:29;18.30;99.90
48946;DHT22;34999;50.940;3.998;2022-09-28T15:37:17;18.10;99.90
48946;DHT22;34999;50.940;3.998;2022-09-28T15:39:50;18.20;99.90
48946;DHT22;34999;50.940;3.998;2022-09-28T15:42:20;18.20;99.90
48946;DHT22;34999;50.940;3.998;2022-09-28T15:45:19;18.00;99.90
48946;DHT22;34999;50.940;3.998;2022-09-28T15:47:51;17.90;99.90
48946;DHT22;34999;50.940;3.998;2022-09-28T15:50:26;17.80;99.90
48946;DHT22;34999;50.940;3.998;2022-09-28T15:52:57;17.80;99.90
48946;DHT22;34999;50.940;3.998;2022-09-28T15:55:30;17.80;99.90
48946;DHT22;34999;50.940;3.998;2022-09-28T15:58:14;17.70;99.90
48946;DHT22;34999;50.940;3.998;2022-09-28T16:00:44;17.70;99.90
48946;DHT22;34999;50.940;3.998;2022-09-28T16:03:22;17.70;99.90
48946;DHT22;34999;50.940;3.998;2022-09-28T16:06:03;17.70;99.90
48946;DHT22;34999;50.940;3.998;2022-09-28T16:08:38;17.50;99.90
48946;DHT22;34999;50.940;3.998;2022-09-28T16:11:13;17.50;99.90
48946;DHT22;34999;50.940;3.998;2022-09-28T16:13:55;17.30;99.90
48946;DHT22;34999;50.940;3.998;2022-09-28T16:16:29;17.30;99.90
48946;DHT22;34999;50.940;3.998;2022-09-28T16:19:00;17.10;99.90
48946;DHT22;34999;50.940;3.998;2022-09-28T16:21:42;16.90;99.90
48946;DHT22;34999;50.940;3.998;2022-09-28T16:24:19;16.80;99.90
48946;DHT22;34999;50.940;3.998;2022-09-28T16:26:56;16.70;99.90
48946;DHT22;34999;50.940;3.998;2022-09-28T16:29:31;16.30;99.90
48946;DHT22;34999;50.940;3.998;2022-09-28T16:32:33;16.10;99.90
48946;DHT22;34999;50.940;3.998;2022-09-28T16:35:28;15.90;99.90
48946;DHT22;34999;50.940;3.998;2022-09-28T16:38:02;15.70;99.90
48946;DHT22;34999;50.940;3.998;2022-09-28T16:40:31;15.30;99.90
48946;DHT22;34999;50.940;3.998;2022-09-28T16:43:04;15.20;99.90
48946;DHT22;34999;50.940;3.998;2022-09-28T16:45:34;15.00;99.90